createdAt,value
2022-09-01T09:06:33.962Z,38.90
2022-09-01T09:09:07.561Z,38.10
2022-09-01T09:12:04.351Z,38.70
2022-09-01T09:15:15.390Z,37.00
2022-09-01T09:17:59.571Z,34.20
2022-09-01T09:20:29.507Z,38.30
2022-09-01T09:23:00.475Z,37.10
2022-09-01T09:25:31.469Z,36.40
2022-09-01T09:28:00.831Z,35.80
2022-09-01T09:30:33.418Z,34.70
2022-09-01T09:36:22.200Z,34.60
2022-09-01T09:39:19.270Z,34.80
2022-09-01T09:42:10.102Z,31.50
2022-09-01T09:44:51.477Z,32.90
2022-09-01T09:47:44.733Z,31.20
2022-09-01T09:50:29.817Z,32.20
2022-09-01T09:53:30.190Z,30.20
2022-09-01T09:56:24.481Z,30.60
2022-09-01T09:58:53.790Z,29.70
2022-09-01T10:01:24.575Z,31.90
2022-09-01T10:03:56.105Z,31.20
2022-09-01T10:06:47.333Z,29.80
2022-09-01T10:09:24.813Z,29.00
2022-09-01T10:11:57.716Z,30.00
2022-09-01T10:14:52.106Z,28.70
2022-09-01T10:17:43.869Z,29.30
2022-09-01T10:20:24.098Z,27.90
2022-09-01T10:22:53.238Z,29.40
2022-09-01T10:25:29.153Z,31.50
2022-09-01T10:28:11.540Z,29.10
2022-09-01T10:30:46.238Z,29.90
2022-09-01T10:33:20.983Z,28.80
2022-09-01T14:33:04.081Z,22.20
2022-09-01T14:35:35.586Z,23.10
2022-09-01T14:38:06.276Z,23.40
2022-09-01T14:40:34.427Z,24.10
2022-09-01T14:43:02.055Z,22.70
2022-09-01T14:45:31.178Z,23.20
2022-09-01T14:48:01.398Z,22.70
2022-09-01T14:50:35.217Z,22.70
2022-09-01T14:53:03.873Z,22.40
2022-09-01T14:55:32.782Z,22.20
2022-09-01T14:58:01.068Z,22.20
2022-09-01T15:00:31.734Z,22.50
2022-09-01T15:02:59.595Z,22.30
2022-09-01T15:05:28.208Z,22.80
2022-09-01T15:07:59.528Z,23.40
2022-09-01T15:10:28.508Z,23.70
2022-09-01T15:12:58.871Z,23.80
2022-09-01T15:15:28.531Z,23.80
2022-09-01T15:17:57.124Z,23.30
2022-09-01T15:20:44.739Z,22.30
2022-09-01T15:23:24.174Z,22.40
2022-09-01T15:25:55.053Z,23.30
2022-09-01T15:28:23.058Z,23.50
2022-09-01T15:30:54.259Z,24.10
2022-09-01T15:33:22.256Z,25.10
2022-09-01T15:35:50.263Z,25.10
2022-09-01T15:38:18.377Z,25.70
2022-09-01T15:40:58.252Z,25.80
2022-09-01T15:43:28.144Z,26.40
2022-09-01T15:45:58.663Z,27.40
2022-09-01T15:48:28.763Z,27.70
2022-09-01T15:51:23.562Z,27.70
2022-09-01T15:53:54.445Z,28.10
2022-09-01T15:56:22.479Z,28.20
2022-09-01T15:59:00.618Z,28.40
2022-09-01T16:01:36.360Z,28.00
2022-09-01T16:04:08.365Z,28.80
2022-09-01T16:06:36.558Z,29.20
2022-09-01T16:09:06.596Z,29.30
2022-09-01T16:11:36.982Z,30.00
2022-09-01T16:14:05.073Z,30.20
2022-09-01T16:17:22.701Z,30.70
2022-09-01T16:20:03.473Z,30.70
2022-09-01T16:22:37.243Z,31.10
2022-09-01T16:25:32.543Z,32.30
2022-09-01T16:28:16.250Z,31.60
2022-09-01T16:30:47.913Z,32.40
2022-09-01T16:33:21.194Z,32.60
2022-09-01T16:36:17.978Z,32.90
2022-09-01T16:39:12.994Z,33.30
2022-09-01T16:42:01.426Z,33.60
2022-09-01T16:45:09.678Z,33.90
2022-09-01T16:48:02.097Z,33.60
2022-09-01T16:51:09.058Z,34.10
2022-09-01T16:54:00.483Z,34.80
2022-09-01T16:56:55.469Z,35.50
2022-09-01T16:59:53.289Z,36.30
2022-09-01T17:02:38.893Z,36.10
2022-09-01T17:05:09.254Z,36.20
2022-09-01T17:07:51.351Z,37.00
2022-09-01T17:10:45.640Z,37.10
2022-09-01T17:13:20.503Z,37.20
2022-09-01T17:16:03.037Z,37.80
2022-09-01T17:18:34.658Z,38.10
2022-09-01T17:21:14.734Z,38.50
2022-09-01T17:23:52.949Z,38.90
2022-09-01T17:26:27.666Z,38.90
2022-09-01T17:29:30.313Z,38.70
2022-09-01T17:32:20.301Z,39.60
2022-09-01T17:35:17.491Z,39.30
2022-09-01T17:38:14.673Z,39.60
2022-09-01T17:41:07.728Z,40.10
2022-09-01T17:43:53.402Z,39.70
2022-09-01T17:47:07.110Z,39.70
2022-09-01T17:49:47.171Z,39.90
2022-09-01T17:52:52.355Z,40.50
2022-09-01T17:56:02.465Z,40.80
2022-09-01T17:58:50.591Z,41.20
2022-09-01T18:02:04.206Z,41.50
2022-09-01T18:05:13.187Z,42.20
2022-09-01T18:07:57.196Z,42.20
2022-09-01T18:10:54.173Z,42.60
2022-09-01T18:13:52.392Z,42.50
2022-09-01T18:16:27.882Z,42.70
2022-09-01T18:19:10.787Z,43.10
2022-09-01T18:21:57.405Z,43.60
2022-09-01T18:25:00.855Z,43.60
2022-09-01T18:27:32.755Z,44.00
2022-09-01T18:30:04.418Z,44.80
2022-09-01T18:32:43.158Z,44.90
2022-09-01T18:35:30.817Z,45.60
2022-09-01T18:38:48.546Z,46.20
2022-09-01T18:42:02.878Z,46.40
2022-09-01T18:45:15.840Z,46.50
2022-09-01T18:48:09.830Z,47.70
2022-09-01T18:51:05.998Z,48.40
2022-09-01T18:54:05.059Z,49.20
2022-09-01T18:56:37.409Z,49.60
2022-09-01T18:59:34.821Z,51.30
2022-09-01T19:02:40.433Z,50.70
2022-09-01T19:06:02.001Z,51.00
2022-09-01T19:09:11.974Z,51.60
2022-09-01T19:12:25.125Z,51.50
2022-09-01T19:15:19.848Z,51.50
2022-09-01T19:17:48.881Z,51.40
2022-09-01T19:20:32.595Z,51.60
2022-09-01T19:23:36.170Z,50.90
2022-09-01T19:26:17.146Z,51.30
2022-09-01T19:29:05.849Z,51.60
2022-09-01T19:32:02.871Z,52.10
2022-09-01T19:34:40.825Z,52.00
2022-09-01T19:37:09.308Z,52.40
2022-09-01T19:39:44.779Z,52.80
2022-09-01T19:42:46.167Z,52.80
2022-09-01T19:45:21.419Z,52.40
2022-09-01T19:47:59.389Z,52.90
2022-09-01T19:50:51.051Z,52.90
2022-09-01T19:53:59.410Z,53.20
2022-09-01T19:57:01.621Z,53.30
2022-09-01T20:00:09.618Z,53.40
2022-09-01T20:02:47.940Z,53.10
2022-09-01T20:05:43.356Z,53.10
2022-09-01T20:08:41.244Z,53.50
2022-09-01T20:11:22.292Z,54.50
2022-09-01T20:14:17.737Z,54.20
2022-09-01T20:16:50.867Z,54.70
2022-09-01T20:19:43.082Z,55.30
2022-09-01T20:22:33.414Z,55.60
2022-09-01T20:25:15.314Z,55.60
2022-09-01T20:28:00.609Z,55.70
2022-09-01T20:30:41.127Z,55.80
2022-09-01T20:33:23.980Z,55.90
2022-09-01T20:36:10.776Z,55.70
2022-09-01T20:39:24.847Z,56.40
2022-09-01T20:42:21.506Z,56.70
2022-09-01T20:45:01.520Z,57.40
2022-09-01T20:47:32.204Z,57.50
2022-09-01T20:50:02.617Z,58.00
2022-09-01T20:53:14.508Z,58.00
2022-09-01T20:56:04.784Z,58.30
2022-09-01T20:58:44.906Z,58.90
2022-09-01T21:01:38.146Z,58.80
2022-09-01T21:04:26.555Z,59.10
2022-09-01T21:07:08.645Z,59.60
2022-09-01T21:09:59.064Z,59.70
2022-09-01T21:12:52.492Z,60.00
2022-09-01T21:16:13.711Z,60.50
2022-09-01T21:19:13.175Z,60.70
2022-09-01T21:22:09.853Z,61.00
2022-09-01T21:24:38.663Z,60.80
2022-09-01T21:27:14.484Z,60.90
2022-09-01T21:30:11.095Z,61.00
2022-09-01T21:32:40.043Z,61.40
2022-09-01T21:35:12.859Z,61.60
2022-09-01T21:37:41.387Z,61.80
2022-09-01T21:40:11.360Z,61.60
2022-09-01T21:42:58.662Z,61.90
2022-09-01T21:45:27.380Z,62.40
2022-09-01T21:47:55.881Z,62.50
2022-09-01T21:50:25.583Z,62.50
